createdAt,value
2023-01-04T00:01:40.467Z,103109.06
2023-01-04T00:04:13.863Z,103107.03
2023-01-04T00:06:40.837Z,103109.66
2023-01-04T00:09:16.414Z,103107.78
2023-01-04T00:11:48.979Z,103110.63
2023-01-04T00:14:26.148Z,103108.34
2023-01-04T00:17:09.168Z,103101.91
2023-01-04T00:20:01.159Z,103102.56
2023-01-04T00:22:38.444Z,103104.22
2023-01-04T00:25:13.995Z,103098.88
2023-01-04T00:27:46.991Z,103101.75
2023-01-04T00:30:19.797Z,103103.69
2023-01-04T00:32:58.738Z,103100.13
2023-01-04T00:35:45.615Z,103105.25
2023-01-04T00:38:20.945Z,103101.34
2023-01-04T00:40:54.279Z,103096.03
2023-01-04T00:43:28.525Z,103096.28
2023-01-04T00:45:57.563Z,103086.75
2023-01-04T00:48:28.187Z,103090.09
2023-01-04T00:51:14.169Z,103086.75
2023-01-04T00:53:41.084Z,103083.72
2023-01-04T00:56:15.529Z,103087.72
2023-01-04T00:58:45.129Z,103084.22
2023-01-04T01:01:21.735Z,103085.88
2023-01-04T01:04:04.984Z,103078.28
2023-01-04T01:06:45.636Z,103080.72
2023-01-04T01:09:15.668Z,103080.41
2023-01-04T01:11:50.398Z,103079.50
2023-01-04T01:14:20.966Z,103080.47
2023-01-04T01:16:56.429Z,103082.19
2023-01-04T01:19:25.132Z,103079.75
2023-01-04T01:24:40.543Z,103087.88
2023-01-04T01:27:07.548Z,103088.63
2023-01-04T01:29:34.539Z,103093.28
2023-01-04T01:32:06.100Z,103094.41
2023-01-04T01:34:41.003Z,103098.53
2023-01-04T01:37:11.525Z,103097.09
2023-01-04T01:39:45.928Z,103097.19
2023-01-04T01:42:30.557Z,103102.41
2023-01-04T01:45:08.846Z,103100.44
2023-01-04T01:47:46.832Z,103097.66
2023-01-04T01:50:36.977Z,103105.41
2023-01-04T01:53:24.367Z,103099.94
2023-01-04T01:56:02.092Z,103103.19
2023-01-04T01:58:40.185Z,103104.81
2023-01-04T02:01:12.555Z,103105.19
2023-01-04T02:03:43.906Z,103107.81
2023-01-04T02:06:12.888Z,103105.13
2023-01-04T02:08:44.510Z,103117.59
2023-01-04T02:11:14.079Z,103111.31
2023-01-04T02:17:05.375Z,103112.88
2023-01-04T02:19:55.890Z,103121.00
2023-01-04T02:23:01.727Z,103114.41
2023-01-04T02:25:48.150Z,103118.91
2023-01-04T02:28:30.152Z,103120.53
2023-01-04T02:31:20.430Z,103120.59
2023-01-04T02:34:00.281Z,103119.44
2023-01-04T02:36:59.758Z,103118.38
2023-01-04T02:40:01.779Z,103115.13
2023-01-04T02:43:16.957Z,103119.34
2023-01-04T02:45:59.189Z,103118.13
2023-01-04T02:51:42.030Z,103108.00
2023-01-04T02:54:25.339Z,103111.78
2023-01-04T02:57:05.841Z,103110.25
2023-01-04T03:03:17.344Z,103108.28
2023-01-04T03:06:18.781Z,103106.03
2023-01-04T03:08:48.875Z,103106.13
2023-01-04T03:11:49.170Z,103101.28
2023-01-04T03:14:32.422Z,103097.63
2023-01-04T03:17:08.664Z,103098.41
2023-01-04T03:19:55.517Z,103098.13
2023-01-04T03:26:05.918Z,103090.16
2023-01-04T03:29:03.940Z,103092.03
2023-01-04T03:32:11.443Z,103089.19
2023-01-04T03:35:12.357Z,103074.81
2023-01-04T03:38:21.501Z,103083.81
2023-01-04T03:41:15.507Z,103082.72
2023-01-04T03:44:19.708Z,103082.81
2023-01-04T03:47:22.794Z,103079.03
2023-01-04T03:50:10.177Z,103080.28
2023-01-04T03:52:39.393Z,103082.19
2023-01-04T03:55:09.931Z,103084.34
2023-01-04T03:57:45.274Z,103080.84
2023-01-04T04:00:17.800Z,103076.72
2023-01-04T04:03:10.288Z,103077.06
2023-01-04T04:06:01.094Z,103076.78
2023-01-04T04:08:29.018Z,103085.97
2023-01-04T04:10:57.513Z,103081.09
2023-01-04T04:13:27.540Z,103082.97
2023-01-04T04:15:54.882Z,103079.47
2023-01-04T04:21:15.487Z,103081.41
2023-01-04T04:23:57.387Z,103085.00
2023-01-04T04:26:26.980Z,103086.34
2023-01-04T04:29:06.768Z,103078.53
2023-01-04T04:31:49.086Z,103082.66
2023-01-04T04:34:21.501Z,103074.75
2023-01-04T04:36:48.545Z,103083.38
2023-01-04T04:39:17.765Z,103079.69
2023-01-04T04:41:47.740Z,103087.31
2023-01-04T04:44:32.876Z,103085.50
2023-01-04T04:47:00.581Z,103090.69
2023-01-04T04:49:31.399Z,103089.69
2023-01-04T04:51:58.393Z,103084.06
2023-01-04T04:57:16.672Z,103086.22
2023-01-04T04:59:54.617Z,103089.34
2023-01-04T05:02:23.042Z,103088.53
2023-01-04T05:04:58.996Z,103093.56
2023-01-04T05:07:30.079Z,103091.66
2023-01-04T05:09:59.327Z,103095.16
2023-01-04T05:15:45.021Z,103100.56
2023-01-04T05:18:20.002Z,103098.47
2023-01-04T05:20:49.480Z,103103.38
2023-01-04T05:23:20.163Z,103101.06
2023-01-04T05:26:30.272Z,103102.59
2023-01-04T05:29:10.100Z,103101.69
2023-01-04T05:31:43.252Z,103098.09
2023-01-04T05:34:17.073Z,103107.06
2023-01-04T05:36:55.444Z,103106.16
2023-01-04T05:39:27.964Z,103109.94
2023-01-04T05:42:19.081Z,103105.03
2023-01-04T05:44:52.314Z,103109.94
2023-01-04T05:47:28.839Z,103111.47
2023-01-04T05:50:09.558Z,103118.44
2023-01-04T05:52:44.644Z,103114.22
2023-01-04T05:55:21.138Z,103121.44
2023-01-04T05:58:06.589Z,103119.16
2023-01-04T06:00:56.249Z,103123.72
2023-01-04T06:03:31.460Z,103127.13
2023-01-04T06:06:01.604Z,103122.34
2023-01-04T06:08:53.127Z,103130.72
2023-01-04T06:11:27.264Z,103126.69
2023-01-04T06:14:03.051Z,103133.31
2023-01-04T06:16:50.753Z,103133.63
2023-01-04T06:19:35.583Z,103134.56
2023-01-04T06:25:10.068Z,103142.31
2023-01-04T06:27:42.880Z,103136.84
2023-01-04T06:30:16.908Z,103142.72
2023-01-04T06:32:49.037Z,103143.31
2023-01-04T06:38:11.670Z,103143.31
2023-01-04T06:40:51.250Z,103151.09
2023-01-04T06:43:31.825Z,103152.31
2023-01-04T06:46:06.096Z,103151.53
2023-01-04T06:48:33.358Z,103148.25
2023-01-04T06:51:11.510Z,103153.63
2023-01-04T06:53:40.270Z,103155.22
2023-01-04T06:56:17.250Z,103170.72
2023-01-04T06:58:49.636Z,103164.88
2023-01-04T07:01:26.926Z,103165.44
2023-01-04T07:03:57.162Z,103164.44
2023-01-04T07:06:34.779Z,103164.63
2023-01-04T07:09:11.598Z,103167.13
2023-01-04T07:12:03.174Z,103168.63
2023-01-04T07:14:40.511Z,103165.94
2023-01-04T07:17:18.259Z,103168.44
2023-01-04T07:19:45.680Z,103170.66
2023-01-04T07:22:15.788Z,103167.38
2023-01-04T07:24:48.587Z,103170.34
2023-01-04T07:27:19.329Z,103170.34
2023-01-04T07:29:49.462Z,103171.72
2023-01-04T07:32:16.824Z,103178.72
2023-01-04T07:34:47.916Z,103181.72
2023-01-04T07:37:17.420Z,103188.22
2023-01-04T07:39:51.492Z,103192.44
2023-01-04T07:42:20.322Z,103195.53
2023-01-04T07:44:47.520Z,103195.72
2023-01-04T07:47:19.961Z,103196.63
2023-01-04T07:49:49.155Z,103204.63
2023-01-04T07:52:16.722Z,103208.81
2023-01-04T07:54:44.264Z,103215.91
2023-01-04T07:57:11.398Z,103205.75
2023-01-04T07:59:41.787Z,103213.91
2023-01-04T08:02:17.775Z,103211.03
2023-01-04T08:04:45.212Z,103220.72
2023-01-04T08:07:12.257Z,103221.03
2023-01-04T08:09:39.288Z,103227.81
2023-01-04T08:12:09.662Z,103225.09
2023-01-04T08:14:39.770Z,103228.59
2023-01-04T08:17:10.360Z,103236.28
2023-01-04T08:19:39.327Z,103235.50
2023-01-04T08:22:11.460Z,103242.28
2023-01-04T08:24:38.570Z,103245.91
2023-01-04T08:27:09.335Z,103244.28
2023-01-04T08:29:40.837Z,103244.28
2023-01-04T08:32:18.627Z,103248.72
2023-01-04T08:34:51.643Z,103245.09
2023-01-04T08:37:20.325Z,103254.59
2023-01-04T08:39:50.238Z,103254.06
2023-01-04T08:42:28.614Z,103258.50
2023-01-04T08:45:00.452Z,103257.69
2023-01-04T08:47:30.720Z,103258.78
2023-01-04T08:49:58.298Z,103266.16
2023-01-04T08:52:25.689Z,103259.75
2023-01-04T08:54:53.149Z,103274.03
2023-01-04T08:57:20.321Z,103267.16
2023-01-04T08:59:47.395Z,103284.00
2023-01-04T09:02:25.353Z,103273.84
2023-01-04T09:04:52.716Z,103279.47
2023-01-04T09:07:19.889Z,103274.00
2023-01-04T09:09:52.808Z,103272.22
2023-01-04T09:12:22.490Z,103274.69
2023-01-04T09:14:49.713Z,103273.56
2023-01-04T09:17:16.972Z,103273.19
2023-01-04T09:19:47.706Z,103276.06
2023-01-04T09:22:15.072Z,103278.09
2023-01-04T09:24:42.507Z,103280.41
2023-01-04T09:27:20.135Z,103286.63
2023-01-04T09:29:47.671Z,103278.63
2023-01-04T09:32:17.242Z,103275.94
2023-01-04T09:34:47.888Z,103277.75
2023-01-04T09:37:26.884Z,103274.09
2023-01-04T09:39:55.330Z,103277.97
2023-01-04T09:42:39.294Z,103269.16
2023-01-04T09:45:25.369Z,103281.09
2023-01-04T09:47:54.004Z,103283.97
2023-01-04T09:50:25.351Z,103274.78
2023-01-04T09:53:13.590Z,103278.59
2023-01-04T09:55:50.909Z,103281.94
2023-01-04T09:58:31.430Z,103282.13
2023-01-04T10:01:05.378Z,103280.03
2023-01-04T10:03:49.354Z,103275.47
2023-01-04T10:06:27.561Z,103267.44
2023-01-04T10:09:01.696Z,103277.59
2023-01-04T10:11:47.498Z,103269.50
2023-01-04T10:14:33.375Z,103266.78
2023-01-04T10:17:17.845Z,103267.50
2023-01-04T10:23:01.380Z,103260.69
2023-01-04T10:25:34.369Z,103256.59
2023-01-04T10:28:25.568Z,103262.19
2023-01-04T10:31:41.041Z,103258.31
2023-01-04T10:34:30.861Z,103260.81
2023-01-04T10:37:48.200Z,103261.44
2023-01-04T10:40:17.632Z,103255.91
2023-01-04T10:42:56.629Z,103245.84
2023-01-04T10:45:48.119Z,103235.47
2023-01-04T10:48:25.499Z,103235.38
2023-01-04T10:51:09.007Z,103228.72
2023-01-04T10:53:57.121Z,103233.34
2023-01-04T10:56:34.394Z,103226.75
2023-01-04T10:59:09.573Z,103224.31
2023-01-04T11:01:39.488Z,103228.19
2023-01-04T11:04:24.961Z,103223.00
2023-01-04T11:07:11.385Z,103216.19
2023-01-04T11:09:53.312Z,103220.69
2023-01-04T11:12:22.850Z,103213.63
2023-01-04T11:14:58.636Z,103212.75
2023-01-04T11:17:27.154Z,103208.31
2023-01-04T11:19:56.122Z,103202.03
2023-01-04T11:22:33.918Z,103193.94
2023-01-04T11:25:35.019Z,103200.75
2023-01-04T11:27:58.628Z,103194.34
2023-01-04T11:30:29.478Z,103189.69
2023-01-04T11:33:01.683Z,103190.06
2023-01-04T11:35:53.623Z,103181.50
2023-01-04T11:38:22.983Z,103172.66
2023-01-04T11:41:06.117Z,103164.09
2023-01-04T11:43:36.771Z,103163.19
2023-01-04T11:46:06.056Z,103163.44
2023-01-04T11:48:38.987Z,103165.66
2023-01-04T11:51:17.326Z,103148.13
2023-01-04T11:53:48.457Z,103151.25
2023-01-04T11:56:24.380Z,103146.78
2023-01-04T11:59:13.955Z,103142.19
2023-01-04T12:01:52.107Z,103140.47
2023-01-04T12:04:35.573Z,103136.66
2023-01-04T12:07:11.244Z,103134.91
2023-01-04T12:09:38.615Z,103132.22
2023-01-04T12:12:15.981Z,103124.38
2023-01-04T12:15:00.454Z,103123.31
2023-01-04T12:17:43.326Z,103128.09
2023-01-04T12:20:21.743Z,103119.81
2023-01-04T12:22:55.857Z,103117.47
2023-01-04T12:25:44.887Z,103117.09
2023-01-04T12:28:38.533Z,103108.44
2023-01-04T12:31:25.152Z,103099.16
2023-01-04T12:34:21.278Z,103097.63
2023-01-04T12:36:53.456Z,103094.47
2023-01-04T12:39:24.647Z,103090.06
2023-01-04T12:42:01.231Z,103089.59
2023-01-04T12:44:39.089Z,103087.69
2023-01-04T12:47:37.575Z,103086.56
2023-01-04T12:50:09.144Z,103086.84
2023-01-04T12:52:55.351Z,103079.66
2023-01-04T12:55:42.137Z,103075.19
2023-01-04T13:01:38.800Z,103065.22
2023-01-04T13:04:24.871Z,103066.75
2023-01-04T13:06:52.853Z,103064.03
2023-01-04T13:09:28.206Z,103049.94
2023-01-04T13:12:05.163Z,103059.75
2023-01-04T13:14:36.946Z,103055.50
2023-01-04T13:17:16.608Z,103048.06
2023-01-04T13:19:45.668Z,103042.91
2023-01-04T13:22:28.956Z,103048.44
2023-01-04T13:25:20.785Z,103047.25
2023-01-04T13:28:05.800Z,103038.66
2023-01-04T13:30:48.909Z,103034.25
2023-01-04T13:33:32.894Z,103043.41
2023-01-04T13:36:12.258Z,103034.09
2023-01-04T13:38:46.486Z,103028.16
2023-01-04T13:41:25.626Z,103033.09
2023-01-04T13:44:05.407Z,103024.13
2023-01-04T13:46:35.397Z,103020.91
2023-01-04T13:49:03.318Z,103032.75
2023-01-04T13:51:37.027Z,103020.50
2023-01-04T13:54:18.947Z,103024.41
2023-01-04T13:56:55.815Z,103025.13
2023-01-04T13:59:26.860Z,103020.66
2023-01-04T14:01:55.589Z,103018.88
2023-01-04T14:04:38.779Z,103020.25
2023-01-04T14:07:11.597Z,103015.69
2023-01-04T14:09:58.395Z,103012.03
2023-01-04T14:12:31.609Z,103018.47
2023-01-04T14:15:20.316Z,103014.00
2023-01-04T14:17:50.253Z,103011.38
2023-01-04T14:20:23.503Z,103012.25
2023-01-04T14:22:54.309Z,103012.31
2023-01-04T14:25:35.933Z,103010.47
2023-01-04T14:28:25.080Z,103014.84
2023-01-04T14:31:06.898Z,103014.00
2023-01-04T14:33:39.572Z,103017.44
2023-01-04T14:39:25.395Z,103017.22
2023-01-04T14:42:02.146Z,103021.00
2023-01-04T14:44:44.432Z,103019.97
2023-01-04T14:47:21.191Z,103021.63
2023-01-04T14:49:51.774Z,103016.41
2023-01-04T14:52:23.752Z,103020.50
2023-01-04T14:54:57.775Z,103018.16
2023-01-04T14:57:33.695Z,103021.69
2023-01-04T15:00:11.430Z,103018.91
2023-01-04T15:02:41.785Z,103013.72
2023-01-04T15:08:04.910Z,103021.22
2023-01-04T15:10:39.570Z,103021.41
2023-01-04T15:13:20.563Z,103025.78
2023-01-04T15:15:57.500Z,103015.03
2023-01-04T15:18:38.348Z,103015.09
2023-01-04T15:21:12.198Z,103026.50
2023-01-04T15:23:47.031Z,103014.72
2023-01-04T15:26:19.953Z,103024.34
2023-01-04T15:28:50.370Z,103023.34
2023-01-04T15:31:21.002Z,103017.19
2023-01-04T15:33:59.196Z,103024.41
2023-01-04T15:36:32.361Z,103015.66
2023-01-04T15:38:59.407Z,103026.31
2023-01-04T15:41:44.975Z,103023.44
2023-01-04T15:44:15.710Z,103033.31
2023-01-04T15:46:42.807Z,103031.47
2023-01-04T15:49:16.708Z,103034.31
2023-01-04T15:51:47.533Z,103031.69
2023-01-04T15:54:21.988Z,103028.09
2023-01-04T15:57:01.283Z,103035.50
2023-01-04T15:59:31.627Z,103034.03
2023-01-04T16:02:14.530Z,103035.31
2023-01-04T16:04:47.616Z,103039.19
2023-01-04T16:07:14.911Z,103032.19
2023-01-04T16:09:48.850Z,103038.50
2023-01-04T16:12:43.198Z,103035.94
2023-01-04T16:18:17.146Z,103039.69
2023-01-04T16:20:49.613Z,103035.38
2023-01-04T16:23:21.905Z,103027.09
2023-01-04T16:25:52.642Z,103041.72
2023-01-04T16:28:30.163Z,103035.50
2023-01-04T16:31:05.522Z,103040.53
2023-01-04T16:33:38.445Z,103037.97
2023-01-04T16:36:07.278Z,103042.84
2023-01-04T16:38:38.390Z,103038.72
2023-01-04T16:41:13.662Z,103039.44
2023-01-04T16:44:17.332Z,103039.34
2023-01-04T16:46:47.507Z,103045.22
2023-01-04T16:49:35.069Z,103047.72
2023-01-04T16:52:04.429Z,103048.03
2023-01-04T16:54:36.860Z,103055.19
2023-01-04T17:00:03.390Z,103047.19
2023-01-04T17:02:30.642Z,103055.31
2023-01-04T17:05:03.880Z,103058.63
2023-01-04T17:07:34.896Z,103060.06
2023-01-04T17:10:11.940Z,103048.59
2023-01-04T17:12:49.069Z,103041.53
2023-01-04T17:15:42.576Z,103049.59
2023-01-04T17:21:31.935Z,103039.28
2023-01-04T17:23:56.370Z,103044.25
2023-01-04T17:26:27.144Z,103036.75
2023-01-04T17:29:10.391Z,103037.72
2023-01-04T17:31:44.701Z,103040.19
2023-01-04T17:34:22.458Z,103035.88
2023-01-04T17:36:54.189Z,103037.00
2023-01-04T17:39:22.928Z,103032.91
2023-01-04T17:42:00.205Z,103038.09
2023-01-04T17:44:39.927Z,103036.19
2023-01-04T17:47:10.076Z,103040.06
2023-01-04T17:49:40.089Z,103036.91
2023-01-04T17:52:09.038Z,103039.44
2023-01-04T17:54:37.141Z,103036.00
2023-01-04T17:57:05.058Z,103041.06
2023-01-04T17:59:32.539Z,103038.75
2023-01-04T18:01:59.929Z,103036.06
2023-01-04T18:04:27.005Z,103042.47
2023-01-04T18:06:54.880Z,103037.41
2023-01-04T18:09:24.481Z,103041.38
2023-01-04T18:11:51.869Z,103044.78
2023-01-04T18:14:24.560Z,103052.88
2023-01-04T18:16:58.671Z,103055.00
2023-01-04T18:19:29.769Z,103050.09
2023-01-04T18:21:57.865Z,103049.09
2023-01-04T18:24:42.028Z,103049.66
2023-01-04T18:27:29.013Z,103051.03
2023-01-04T18:29:56.948Z,103054.56
2023-01-04T18:32:28.539Z,103056.97
2023-01-04T18:35:01.251Z,103050.69
2023-01-04T18:37:35.771Z,103051.72
2023-01-04T18:40:12.439Z,103050.91
2023-01-04T18:42:55.981Z,103058.94
2023-01-04T18:45:23.546Z,103057.16
2023-01-04T18:47:52.509Z,103053.53
2023-01-04T18:50:23.462Z,103064.00
2023-01-04T18:52:53.194Z,103071.03
2023-01-04T18:55:20.621Z,103068.34
2023-01-04T18:57:47.984Z,103071.47
2023-01-04T19:00:17.599Z,103069.63
2023-01-04T19:02:47.438Z,103080.94
2023-01-04T19:05:19.310Z,103072.81
2023-01-04T19:07:50.853Z,103078.00
2023-01-04T19:10:18.445Z,103082.22
2023-01-04T19:12:48.316Z,103077.81
2023-01-04T19:15:18.701Z,103076.66
2023-01-04T19:17:48.779Z,103079.34
2023-01-04T19:20:19.883Z,103080.13
2023-01-04T19:22:47.431Z,103078.16
2023-01-04T19:25:15.383Z,103080.63
2023-01-04T19:27:43.014Z,103081.22
2023-01-04T19:30:13.287Z,103082.84
2023-01-04T19:32:45.362Z,103082.94
2023-01-04T19:35:13.011Z,103074.88
2023-01-04T19:37:43.500Z,103091.41
2023-01-04T19:40:11.419Z,103079.88
2023-01-04T19:42:40.515Z,103071.81
2023-01-04T19:45:09.122Z,103075.38
2023-01-04T19:47:36.435Z,103071.97
2023-01-04T19:50:04.000Z,103081.44
2023-01-04T19:52:34.401Z,103083.88
2023-01-04T19:55:01.471Z,103084.88
2023-01-04T19:57:28.486Z,103086.75
2023-01-04T19:59:56.691Z,103092.81
2023-01-04T20:02:23.935Z,103087.50
2023-01-04T20:04:51.164Z,103095.28
2023-01-04T20:07:23.803Z,103079.53
2023-01-04T20:09:52.037Z,103082.97
2023-01-04T20:12:22.030Z,103086.16
2023-01-04T20:14:49.149Z,103087.75
2023-01-04T20:17:16.057Z,103092.69
2023-01-04T20:19:43.044Z,103089.94
2023-01-04T20:22:10.943Z,103092.44
2023-01-04T20:24:38.013Z,103089.59
2023-01-04T20:27:05.204Z,103097.38
2023-01-04T20:29:33.945Z,103096.22
2023-01-04T20:32:04.840Z,103095.94
2023-01-04T20:34:32.380Z,103101.09
2023-01-04T20:36:59.399Z,103098.19
2023-01-04T20:39:29.417Z,103105.25
2023-01-04T20:42:14.874Z,103106.53
2023-01-04T20:44:42.185Z,103101.00
2023-01-04T20:47:10.516Z,103100.91
2023-01-04T20:49:37.492Z,103106.81
2023-01-04T20:52:04.684Z,103107.94
2023-01-04T20:54:31.596Z,103101.16
2023-01-04T20:56:58.689Z,103102.00
2023-01-04T20:59:25.837Z,103098.03
2023-01-04T21:01:56.369Z,103104.91
2023-01-04T21:04:23.511Z,103105.50
2023-01-04T21:06:51.568Z,103101.84
2023-01-04T21:09:18.606Z,103115.44
2023-01-04T21:11:45.558Z,103109.38
2023-01-04T21:14:12.740Z,103113.25
2023-01-04T21:16:42.082Z,103111.84
2023-01-04T21:19:10.735Z,103113.34
2023-01-04T21:21:40.840Z,103108.03
2023-01-04T21:24:08.072Z,103114.97
2023-01-04T21:26:35.369Z,103120.81
2023-01-04T21:29:04.962Z,103116.69
2023-01-04T21:31:32.644Z,103115.59
2023-01-04T21:33:59.706Z,103113.63
2023-01-04T21:36:29.369Z,103122.16
2023-01-04T21:38:59.491Z,103111.69
2023-01-04T21:41:26.786Z,103113.03
2023-01-04T21:43:54.944Z,103115.63
2023-01-04T21:46:23.285Z,103104.31
2023-01-04T21:48:53.281Z,103099.53
2023-01-04T21:51:20.477Z,103094.41
2023-01-04T21:53:48.303Z,103106.44
2023-01-04T21:56:17.062Z,103099.28
2023-01-04T21:58:44.997Z,103104.50
2023-01-04T22:01:17.353Z,103102.81
2023-01-04T22:03:45.296Z,103103.69
2023-01-04T22:06:14.089Z,103100.19
2023-01-04T22:08:45.305Z,103106.84
2023-01-04T22:11:14.019Z,103104.22
2023-01-04T22:13:41.133Z,103105.69
2023-01-04T22:16:16.147Z,103101.94
2023-01-04T22:18:50.000Z,103104.28
2023-01-04T22:21:21.508Z,103101.69
2023-01-04T22:23:48.637Z,103100.03
2023-01-04T22:26:15.795Z,103094.66
2023-01-04T22:28:42.898Z,103098.09
2023-01-04T22:31:11.687Z,103107.56
2023-01-04T22:33:41.910Z,103099.50
2023-01-04T22:36:17.125Z,103101.72
2023-01-04T22:38:52.034Z,103109.28
2023-01-04T22:41:21.562Z,103103.84
2023-01-04T22:43:53.581Z,103103.38
2023-01-04T22:46:20.642Z,103104.00
2023-01-04T22:48:47.649Z,103107.28
2023-01-04T22:51:16.505Z,103109.00
2023-01-04T22:53:43.763Z,103109.00
2023-01-04T22:56:21.641Z,103105.97
2023-01-04T22:58:54.959Z,103106.06
2023-01-04T23:01:24.236Z,103101.66
2023-01-04T23:03:52.899Z,103104.94
2023-01-04T23:06:20.936Z,103101.25
2023-01-04T23:08:49.044Z,103103.69
2023-01-04T23:11:17.892Z,103105.81
2023-01-04T23:13:48.826Z,103104.66
2023-01-04T23:16:18.941Z,103099.72
2023-01-04T23:18:46.048Z,103098.47
2023-01-04T23:21:15.656Z,103100.34
2023-01-04T23:23:43.158Z,103098.47
2023-01-04T23:26:14.773Z,103094.00
2023-01-04T23:28:53.015Z,103092.16
2023-01-04T23:31:36.210Z,103087.63
2023-01-04T23:34:06.659Z,103081.22
2023-01-04T23:36:38.189Z,103085.47
2023-01-04T23:39:07.147Z,103092.38
2023-01-04T23:41:49.350Z,103084.31
2023-01-04T23:44:17.016Z,103085.38
2023-01-04T23:46:44.776Z,103082.59
2023-01-04T23:49:12.968Z,103087.81
2023-01-04T23:51:43.285Z,103085.03
2023-01-04T23:54:12.473Z,103081.53
2023-01-04T23:56:40.026Z,103077.00
2023-01-04T23:59:08.896Z,103077.88
